createdAt,value
2022-09-14T00:03:23.697Z,23.72
2022-09-14T00:08:16.124Z,23.71
2022-09-14T00:13:08.678Z,23.72
2022-09-14T00:18:01.312Z,23.71
2022-09-14T00:22:53.988Z,23.69
2022-09-14T00:27:46.601Z,23.69
2022-09-14T00:32:39.408Z,23.68
2022-09-14T00:37:32.038Z,23.69
2022-09-14T00:42:24.695Z,23.69
2022-09-14T00:47:17.251Z,23.68
2022-09-14T00:52:10.122Z,23.69
2022-09-14T00:57:02.711Z,23.67
2022-09-14T01:01:55.540Z,23.69
2022-09-14T01:06:48.062Z,23.68
2022-09-14T01:11:40.965Z,23.68
2022-09-14T01:16:33.558Z,23.65
2022-09-14T01:21:25.993Z,23.64
2022-09-14T01:26:18.733Z,23.62
2022-09-14T01:31:11.597Z,23.63
2022-09-14T01:36:04.209Z,23.66
2022-09-14T01:40:57.028Z,23.62
2022-09-14T01:45:49.894Z,23.63
2022-09-14T01:50:42.302Z,23.63
2022-09-14T01:55:34.953Z,23.62
2022-09-14T02:00:27.610Z,23.66
2022-09-14T02:05:20.308Z,23.66
2022-09-14T02:10:12.922Z,23.64
2022-09-14T02:15:05.393Z,23.61
2022-09-14T02:19:57.903Z,23.61
2022-09-14T02:24:50.296Z,23.6
2022-09-14T02:29:43.010Z,23.61
2022-09-14T02:34:35.585Z,23.6
2022-09-14T02:39:28.017Z,23.59
2022-09-14T02:44:20.563Z,23.57
2022-09-14T02:49:13.331Z,23.58
2022-09-14T02:54:06.160Z,23.62
2022-09-14T02:58:58.920Z,23.6
2022-09-14T03:03:51.632Z,23.56
2022-09-14T03:08:44.452Z,23.54
2022-09-14T03:13:37.024Z,23.55
2022-09-14T03:18:29.585Z,23.55
2022-09-14T03:23:22.214Z,23.54
2022-09-14T03:28:15.180Z,23.57
2022-09-14T03:33:07.704Z,23.54
2022-09-14T03:38:00.216Z,23.54
2022-09-14T03:42:53.041Z,23.56
2022-09-14T03:47:45.342Z,23.55
2022-09-14T03:52:37.917Z,23.54
2022-09-14T03:57:30.074Z,23.51
2022-09-14T04:02:22.665Z,23.5
2022-09-14T04:07:15.310Z,23.51
2022-09-14T04:12:08.060Z,23.52
2022-09-14T04:17:00.685Z,23.52
2022-09-14T04:21:53.112Z,23.43
2022-09-14T04:26:45.804Z,23.63
2022-09-14T04:31:44.157Z,23.62
2022-09-14T04:36:35.723Z,23.6
2022-09-14T04:41:28.132Z,23.58
2022-09-14T04:46:21.134Z,23.55
2022-09-14T04:51:13.683Z,23.7
2022-09-14T04:56:06.567Z,23.63
2022-09-14T05:00:53.591Z,23.68
2022-09-14T05:05:47.100Z,23.8
2022-09-14T05:10:40.592Z,23.73
2022-09-14T05:15:33.277Z,23.86
2022-09-14T05:20:26.149Z,23.86
2022-09-14T05:25:18.881Z,23.89
2022-09-14T05:30:11.402Z,23.82
2022-09-14T05:35:04.087Z,23.96
2022-09-14T05:39:56.720Z,23.92
2022-09-14T05:44:49.515Z,23.91
2022-09-14T05:49:42.325Z,23.94
2022-09-14T05:54:35.154Z,23.89
2022-09-14T05:59:28.012Z,24.01
2022-09-14T06:04:15.055Z,23.97
2022-09-14T06:09:08.307Z,24
2022-09-14T06:14:02.306Z,23.89
2022-09-14T06:18:55.143Z,24
2022-09-14T06:23:48.071Z,23.98
2022-09-14T06:28:40.656Z,24.04
2022-09-14T06:33:33.602Z,24.01
2022-09-14T06:38:26.420Z,24.06
2022-09-14T06:43:19.233Z,24.12
2022-09-14T06:48:11.978Z,24.13
2022-09-14T06:53:04.741Z,24.26
2022-09-14T06:57:57.243Z,24.23
2022-09-14T07:02:53.622Z,24.21
2022-09-14T07:07:42.746Z,24.16
2022-09-14T07:12:35.652Z,24.12
2022-09-14T07:17:28.714Z,24.1
2022-09-14T07:22:21.379Z,24.02
2022-09-14T07:27:14.019Z,24.09
2022-09-14T07:32:06.561Z,24.03
2022-09-14T07:36:59.199Z,24.02
2022-09-14T07:41:51.969Z,24.34
2022-09-14T07:46:44.344Z,24.34
2022-09-14T07:51:36.939Z,24.33
2022-09-14T07:56:24.762Z,24.36
2022-09-14T08:01:17.407Z,24.33
2022-09-14T08:06:11.038Z,24.27
2022-09-14T08:11:03.954Z,24.25
2022-09-14T08:15:56.672Z,24.19
2022-09-14T08:20:49.410Z,24.17
2022-09-14T08:25:42.083Z,24.14
2022-09-14T08:30:34.818Z,24.09
2022-09-14T08:35:40.970Z,24.04
2022-09-14T08:40:19.886Z,24.03
2022-09-14T08:45:12.398Z,23.99
2022-09-14T08:50:00.319Z,23.92
2022-09-14T08:54:52.636Z,23.92
2022-09-14T08:59:46.430Z,23.88
2022-09-14T09:04:39.190Z,23.86
2022-09-14T09:09:31.896Z,23.92
2022-09-14T09:14:24.626Z,23.92
2022-09-14T09:19:17.415Z,23.87
2022-09-14T09:24:10.094Z,23.86
2022-09-14T09:29:02.842Z,23.86
2022-09-14T09:33:55.363Z,23.88
2022-09-14T09:38:43.091Z,23.84
2022-09-14T09:43:49.171Z,23.82
2022-09-14T09:48:29.830Z,23.78
2022-09-14T09:53:22.488Z,23.78
2022-09-14T09:58:15.149Z,23.81
2022-09-14T10:03:07.974Z,23.77
2022-09-14T10:08:00.668Z,23.77
2022-09-14T10:12:53.207Z,23.77
2022-09-14T10:17:45.858Z,23.75
2022-09-14T10:22:38.479Z,23.76
2022-09-14T10:27:34.364Z,23.76
2022-09-14T10:32:23.871Z,23.77
2022-09-14T10:37:16.624Z,23.76
2022-09-14T10:42:09.346Z,23.78
2022-09-14T10:47:04.643Z,23.78
2022-09-14T10:51:54.804Z,23.8
2022-09-14T10:56:47.666Z,23.8
2022-09-14T11:01:34.650Z,23.79
2022-09-14T11:06:27.842Z,23.8
2022-09-14T11:11:21.469Z,23.79
2022-09-14T11:16:14.278Z,23.78
2022-09-14T11:21:06.758Z,23.76
2022-09-14T11:25:59.479Z,23.77
2022-09-14T11:30:52.132Z,23.77
2022-09-14T11:35:44.859Z,23.79
2022-09-14T11:40:37.438Z,23.78
2022-09-14T11:45:29.775Z,23.78
2022-09-14T11:50:22.690Z,23.78
2022-09-14T11:55:15.514Z,23.8
2022-09-14T12:00:08.200Z,23.8
2022-09-14T12:05:00.885Z,23.81
2022-09-14T12:09:53.669Z,23.88
2022-09-14T12:14:46.379Z,23.88
2022-09-14T12:19:38.789Z,23.89
2022-09-14T12:24:31.430Z,23.89
2022-09-14T12:29:24.111Z,23.89
2022-09-14T12:34:16.846Z,23.88
2022-09-14T12:39:09.392Z,23.89
2022-09-14T12:44:02.047Z,23.88
2022-09-14T12:48:54.683Z,23.88
2022-09-14T12:53:47.497Z,23.88
2022-09-14T12:58:40.246Z,23.88
2022-09-14T13:03:32.972Z,23.88
2022-09-14T13:08:25.573Z,23.89
2022-09-14T13:13:18.385Z,23.88
2022-09-14T13:18:10.945Z,23.86
2022-09-14T13:23:03.676Z,23.86
2022-09-14T13:27:56.375Z,23.87
2022-09-14T13:32:49.078Z,23.87
2022-09-14T13:37:44.140Z,23.87
2022-09-14T13:42:34.435Z,23.86
2022-09-14T13:47:27.031Z,23.85
2022-09-14T13:52:19.823Z,23.85
2022-09-14T13:57:12.496Z,23.87
2022-09-14T14:02:05.335Z,23.85
2022-09-14T14:06:58.123Z,23.85
2022-09-14T14:11:50.752Z,23.86
2022-09-14T14:16:43.520Z,23.87
2022-09-14T14:21:36.192Z,23.9
2022-09-14T14:26:28.922Z,23.87
2022-09-14T14:31:21.602Z,23.88
2022-09-14T14:36:14.190Z,23.91
2022-09-14T14:41:06.815Z,23.88
2022-09-14T14:45:59.711Z,23.89
2022-09-14T14:50:52.184Z,23.86
2022-09-14T14:55:44.789Z,23.86
2022-09-14T15:00:37.699Z,23.84
2022-09-14T15:05:30.334Z,23.83
2022-09-14T15:10:23.314Z,23.84
2022-09-14T15:15:15.883Z,23.83
2022-09-14T15:20:08.523Z,23.81
2022-09-14T15:25:01.404Z,23.83
2022-09-14T15:29:54.257Z,23.86
2022-09-14T15:34:46.625Z,23.82
2022-09-14T15:39:39.241Z,23.81
2022-09-14T15:44:31.931Z,23.79
2022-09-14T15:49:24.872Z,23.79
2022-09-14T15:54:17.386Z,23.8
2022-09-14T15:59:10.031Z,23.78
2022-09-14T16:04:02.523Z,23.8
2022-09-14T16:08:55.467Z,23.86
2022-09-14T16:13:48.120Z,23.84
2022-09-14T16:18:40.650Z,23.78
2022-09-14T16:23:33.268Z,23.76
2022-09-14T16:28:26.122Z,23.78
2022-09-14T16:33:18.765Z,23.78
2022-09-14T16:38:11.586Z,23.77
2022-09-14T16:43:04.172Z,23.78
2022-09-14T16:47:56.928Z,23.78
2022-09-14T16:52:43.508Z,23.78
2022-09-14T16:57:36.744Z,23.78
2022-09-14T17:02:30.459Z,23.77
2022-09-14T17:07:22.897Z,23.77
2022-09-14T17:12:15.458Z,23.79
2022-09-14T17:17:08.296Z,23.8
2022-09-14T17:22:00.970Z,23.75
2022-09-14T17:26:53.505Z,23.77
2022-09-14T17:31:46.477Z,23.78
2022-09-14T17:36:39.238Z,23.81
2022-09-14T17:41:32.181Z,23.86
2022-09-14T17:46:25.199Z,23.86
2022-09-14T17:51:17.953Z,23.91
2022-09-14T17:56:10.713Z,23.93
2022-09-14T18:01:03.481Z,23.9
2022-09-14T18:05:55.879Z,23.89
2022-09-14T18:10:48.335Z,23.87
2022-09-14T18:15:40.981Z,23.88
2022-09-14T18:20:33.510Z,23.89
2022-09-14T18:25:26.015Z,23.89
2022-09-14T18:30:18.609Z,23.9
2022-09-14T18:35:11.285Z,23.93
2022-09-14T18:40:03.998Z,23.92
2022-09-14T18:44:56.422Z,23.91
2022-09-14T18:49:49.132Z,23.88
2022-09-14T18:54:41.653Z,23.89
2022-09-14T18:59:34.176Z,23.87
2022-09-14T19:04:26.845Z,23.9
2022-09-14T19:09:19.762Z,23.94
2022-09-14T19:14:12.159Z,23.82
2022-09-14T19:19:05.596Z,23.77
2022-09-14T19:23:57.359Z,23.76
2022-09-14T19:28:50.069Z,23.72
2022-09-14T19:33:45.594Z,23.71
2022-09-14T19:38:35.358Z,23.71
2022-09-14T19:43:29.051Z,23.68
2022-09-14T19:48:20.636Z,23.68
2022-09-14T19:53:13.167Z,23.69
2022-09-14T19:58:05.975Z,23.68
2022-09-14T20:02:58.693Z,23.68
2022-09-14T20:07:51.079Z,23.65
2022-09-14T20:12:43.705Z,23.66
2022-09-14T20:17:36.498Z,23.68
2022-09-14T20:22:29.417Z,23.65
2022-09-14T20:27:21.889Z,23.62
2022-09-14T20:32:16.306Z,23.6
2022-09-14T20:37:07.126Z,23.6
2022-09-14T20:41:59.824Z,23.59
2022-09-14T20:46:52.440Z,23.58
2022-09-14T20:51:45.080Z,23.57
2022-09-14T20:56:37.762Z,23.6
2022-09-14T21:01:30.390Z,23.59
2022-09-14T21:06:22.662Z,23.55
2022-09-14T21:11:15.255Z,23.55
2022-09-14T21:16:07.923Z,23.52
2022-09-14T21:21:02.885Z,23.54
2022-09-14T21:25:53.465Z,23.55
2022-09-14T21:30:46.069Z,23.55
2022-09-14T21:35:38.916Z,23.54
2022-09-14T21:40:31.417Z,23.52
2022-09-14T21:45:23.915Z,23.5
2022-09-14T21:50:16.176Z,23.48
2022-09-14T21:55:08.799Z,23.47
2022-09-14T22:00:01.471Z,23.5
2022-09-14T22:04:53.878Z,23.47
2022-09-14T22:09:46.579Z,23.46
2022-09-14T22:14:39.361Z,23.5
2022-09-14T22:19:32.027Z,23.51
2022-09-14T22:24:24.459Z,23.52
2022-09-14T22:29:17.084Z,23.5
2022-09-14T22:34:09.681Z,23.49
2022-09-14T22:39:02.378Z,23.49
2022-09-14T22:43:55.098Z,23.48
2022-09-14T22:48:47.599Z,23.48
2022-09-14T22:53:40.230Z,23.45
2022-09-14T22:58:32.852Z,23.45
2022-09-14T23:03:25.821Z,23.45
2022-09-14T23:08:18.528Z,23.42
2022-09-14T23:13:11.065Z,23.43
2022-09-14T23:18:03.816Z,23.45
2022-09-14T23:22:56.397Z,23.44
2022-09-14T23:27:49.061Z,23.43
2022-09-14T23:32:41.810Z,23.45
2022-09-14T23:37:34.859Z,23.41
2022-09-14T23:42:27.399Z,23.41
2022-09-14T23:47:20.152Z,23.41
2022-09-14T23:52:12.681Z,23.38
2022-09-14T23:57:05.221Z,23.4
